Flight Track Log - Related Links

Times and Time Zones

All times are in EST time to prevent confusion due to time zone crossing. See the EJA583 flight status page for this flight to view local times or setup timezone preferences in your user account.

Time Position Orientation Groundspeed Altitude Reporting Facility
EST Latitude Longitude Course Direction KTS MPH feet Rate Location/Type
Mon 07:26:02 AM 40.8300 -81.5417 232° Southwest 244 281 7,800  Level Indianapolis Center
Mon 07:27:03 AM 40.7800 -81.6211 230° Southwest 274 315 8,100 183 Climbing Indianapolis Center
Mon 07:28:13 AM 40.7219 -81.7103 229° Southwest 272 313 8,200 864 Climbing Cleveland Center
Mon 07:29:15 AM 40.6697 -81.7908 229° Southwest 283 326 10,000 947 Climbing Cleveland Center
Mon 07:30:00 AM 40.6553 -81.8604 229° Southwest  Level Estimated
Mon 07:30:07 AM 40.6183 -81.8728 230° Southwest 331 381 10,000  Level Indianapolis Center
Mon 07:31:00 AM 40.6119 -81.9295 232° Southwest  Level Estimated
Mon 07:31:08 AM 40.5558 -81.9689 229° Southwest 342 394 10,000  Level Indianapolis Center
Mon 07:31:51 AM 40.5111 -82.0403 231° Southwest 339 390 10,000  Level Indianapolis Center
Mon 07:32:10 AM 40.4956 -82.0669 233° Southwest 341 392 10,000  Level Indianapolis Center
Mon 07:32:52 AM 40.4503 -82.1356 229° Southwest 338 389 10,000  Level Indianapolis Center
Mon 07:33:11 AM 40.4319 -82.1589 224° Southwest 337 388 10,000  Level Indianapolis Center
Mon 07:33:52 AM 40.3850 -82.2356 231° Southwest 341 392 10,000  Level Indianapolis Center
Mon 07:34:13 AM 40.3708 -82.2561 228° Southwest 341 392 10,000  Level Indianapolis Center
Mon 07:34:53 AM 40.3219 -82.3303 229° Southwest 342 394 10,000  Level Indianapolis Center
Mon 07:35:54 AM 40.2847 -82.4425 247° West 338 389 10,000  Level Indianapolis Center
Mon 07:36:15 AM 40.2764 -82.4683 247° West 338 389 10,000  Level Indianapolis Center
Mon 07:36:54 AM 40.2511 -82.5581 250° West 337 388 10,000  Level Indianapolis Center
Mon 07:37:17 AM 40.2389 -82.5986 248° West 339 390 10,000 -787 Level Indianapolis Center
Mon 07:37:55 AM 40.2228 -82.6603 251° West 292 336 9,200 -1,574 Descending Indianapolis Center
Mon 07:38:18 AM 40.2136 -82.6953 251° West 286 329 8,400 -2,328 Descending Indianapolis Center
Mon 07:39:02 AM 40.1944 -82.7628 250° West 247 284 6,600 -2,129 Descending Indianapolis Center
Mon 07:39:20 AM 40.1908 -82.7825 257° West 260 299 6,200 -1,300 Descending Indianapolis Center
Mon 07:40:02 AM 40.1758 -82.8503 254° West 241 277 5,300 -1,065 Descending Indianapolis Center
Mon 07:40:22 AM 40.1733 -82.8675 259° West 247 284 5,100 -327 Descending Indianapolis Center
Mon 07:40:57 AM 40.1622 -82.9275 256° West 240 276 5,000 -98 Descending Indianapolis Center
Mon 07:41:23 AM 40.1578 -82.9517 256° West 241 277 5,000 -787 Level Indianapolis Center
Mon 07:41:58 AM 40.1325 -82.9964 234° Southwest 218 251 4,200 -1,161 Descending Indianapolis Center
Mon 07:42:25 AM 40.1214 -83.0128 228° Southwest 218 251 3,800 -818 Descending Indianapolis Center
Mon 07:43:26 AM 40.0775 -83.0450 209° Southwest 198 228 3,000 -453 Descending Indianapolis Center
Mon 07:44:11 AM 40.0347 -83.0519 187° South 159 183 3,000  Level Indianapolis Center
Mon 07:44:28 AM 40.0225 -83.0514 178° South 170 196 3,000 -393 Level Indianapolis Center
Mon 07:45:12 AM 40.0108 -83.0178 114° Southeast 135 155 2,600 -590 Descending Indianapolis Center
Mon 07:45:29 AM 40.0092 -83.0011 97° East 151 174 2,400 -759 Descending Indianapolis Center
Mon 07:46:31 AM 40.0058 -82.9525 95° East 137 158 1,600 -750 Descending Indianapolis Center
Mon 07:47:13 AM 40.0028 -82.9236 98° East 112 129 1,100 -492 Descending Indianapolis Center
Mon 07:47:32 AM 40.0025 -82.9106 92° East 115 132 1,100  Level Indianapolis Center

Login

Don't have an account? Register now (free) for customized features, flight alerts, and more!